Time;durP1;ratioP1;P1;durP2;ratioP2;P2;SDS_P1;SDS_P2;PMS_P1;PMS_P2;Temp;Humidity;BMP_temperature;BMP_pressure;BME280_temperature;BME280_humidity;BME280_pressure;Samples;Min_cycle;Max_cycle;Signal;HPM_P1;HPM_P2
2022/07/04 00:00:04;;;;;;;4.63;2.00;;;;;;;20.19;100.00;96341.41;5063628;28;20024;-77
2022/07/04 00:02:30;;;;;;;5.07;2.10;;;;;;;20.10;100.00;96344.56;5063407;28;20033;-77
2022/07/04 00:04:56;;;;;;;4.30;1.88;;;;;;;20.13;100.00;96352.94;5047336;28;20024;-78
2022/07/04 00:07:22;;;;;;;5.75;1.85;;;;;;;20.09;100.00;96349.09;5045747;28;20033;-77
2022/07/04 00:09:47;;;;;;;3.85;1.70;;;;;;;19.87;100.00;96358.47;5048101;28;20107;-77
2022/07/04 00:12:14;;;;;;;4.63;1.60;;;;;;;19.91;100.00;96365.00;5048416;28;20853;-77
2022/07/04 00:14:39;;;;;;;2.35;1.52;;;;;;;19.93;100.00;96353.09;5065299;28;20032;-77
2022/07/04 00:17:05;;;;;;;2.63;1.20;;;;;;;19.84;100.00;96348.22;5063606;28;20028;-78
2022/07/04 00:19:31;;;;;;;5.03;1.63;;;;;;;19.74;100.00;96338.00;5063890;28;20025;-77
2022/07/04 00:21:57;;;;;;;4.32;1.77;;;;;;;19.60;100.00;96337.22;5063088;28;20056;-77
2022/07/04 00:24:23;;;;;;;4.38;2.10;;;;;;;19.60;100.00;96350.56;5048029;28;20720;-77
2022/07/04 00:26:48;;;;;;;9.48;1.90;;;;;;;19.47;100.00;96346.09;5048275;28;20025;-77
2022/07/04 00:29:14;;;;;;;7.40;1.92;;;;;;;19.55;100.00;96351.22;5063038;28;20043;-77
2022/07/04 00:31:41;;;;;;;3.42;1.52;;;;;;;19.65;100.00;96339.28;5062855;28;20039;-77
2022/07/04 00:34:06;;;;;;;4.72;1.90;;;;;;;19.62;100.00;96329.03;5064978;28;20028;-77
2022/07/04 00:36:32;;;;;;;4.57;1.83;;;;;;;19.43;100.00;96318.22;5061379;28;20580;-77
2022/07/04 00:38:58;;;;;;;3.65;1.55;;;;;;;19.54;100.00;96324.75;5060400;28;20032;-78
2022/07/04 00:41:24;;;;;;;4.85;1.70;;;;;;;19.56;100.00;96320.03;5063939;28;20094;-77
2022/07/04 00:44:01;;;;;;;2.72;1.77;;;;;;;19.58;100.00;96325.13;5042289;28;20017;-77
2022/07/04 00:46:27;;;;;;;4.25;2.00;;;;;;;19.49;100.00;96321.91;5062329;28;20116;-77
2022/07/04 00:48:52;;;;;;;4.78;2.20;;;;;;;19.34;100.00;96316.03;5027301;28;20132;-78
2022/07/04 00:51:18;;;;;;;4.03;2.13;;;;;;;19.36;100.00;96304.13;5045980;28;20048;-77
2022/07/04 00:53:45;;;;;;;3.75;1.70;;;;;;;19.35;100.00;96297.16;5048129;28;20020;-77
2022/07/04 00:56:11;;;;;;;1.92;1.35;;;;;;;19.29;100.00;96300.66;5044509;28;20046;-78
2022/07/04 00:58:37;;;;;;;4.00;1.67;;;;;;;19.24;100.00;96303.94;5044682;28;20029;-77
2022/07/04 01:01:03;;;;;;;2.30;1.27;;;;;;;19.16;100.00;96306.88;5061973;28;20036;-77
2022/07/04 01:03:29;;;;;;;4.07;1.60;;;;;;;18.96;100.00;96319.44;5041735;28;20063;-78
2022/07/04 01:05:56;;;;;;;3.15;1.50;;;;;;;18.44;100.00;96340.59;5060138;28;20041;-77
2022/07/04 01:08:22;;;;;;;2.58;1.50;;;;;;;18.31;100.00;96328.13;5029758;28;20562;-77
2022/07/04 01:10:47;;;;;;;4.18;1.42;;;;;;;18.15;100.00;96344.50;5065952;28;20025;-77
2022/07/04 01:13:23;;;;;;;4.25;1.58;;;;;;;18.05;100.00;96349.41;5065054;28;20040;-77
2022/07/04 01:15:50;;;;;;;2.85;1.20;;;;;;;18.09;100.00;96353.31;5063532;28;20507;-78
2022/07/04 01:18:17;;;;;;;3.15;1.58;;;;;;;17.97;100.00;96341.63;5061992;28;20036;-77
2022/07/04 01:20:43;;;;;;;4.45;1.65;;;;;;;18.11;100.00;96330.78;5059146;28;20482;-77
2022/07/04 01:23:09;;;;;;;2.15;1.27;;;;;;;18.15;100.00;96331.22;5029013;28;20402;-77
2022/07/04 01:25:35;;;;;;;3.42;1.30;;;;;;;18.10;100.00;96323.81;5060129;28;20159;-77
2022/07/04 01:28:02;;;;;;;2.13;1.30;;;;;;;18.11;100.00;96330.78;5061149;28;20743;-77
2022/07/04 01:30:29;;;;;;;2.25;1.45;;;;;;;18.14;100.00;96338.38;5046535;28;20052;-77
2022/07/04 01:32:55;;;;;;;3.35;1.70;;;;;;;18.17;100.00;96331.00;5062197;28;20040;-77
2022/07/04 01:35:22;;;;;;;2.40;1.20;;;;;;;18.18;100.00;96341.44;5061435;28;20510;-78
2022/07/04 01:37:48;;;;;;;1.90;1.20;;;;;;;18.21;100.00;96337.53;5045240;28;20040;-77
2022/07/04 01:40:14;;;;;;;3.10;1.33;;;;;;;18.03;100.00;96338.16;5028665;28;20146;-77
2022/07/04 01:42:41;;;;;;;3.22;1.25;;;;;;;18.11;100.00;96337.97;5025267;28;20127;-77
2022/07/04 01:45:08;;;;;;;3.17;1.63;;;;;;;18.11;100.00;96336.13;5063561;28;20032;-77
2022/07/04 01:47:35;;;;;;;3.80;1.40;;;;;;;17.94;100.00;96336.69;5065766;28;20029;-77
2022/07/04 01:50:01;;;;;;;3.72;1.30;;;;;;;17.98;100.00;96338.78;5049112;28;20130;-77
2022/07/04 01:52:27;;;;;;;3.05;1.55;;;;;;;18.02;100.00;96340.00;5063902;28;20033;-77
2022/07/04 01:54:52;;;;;;;4.32;1.55;;;;;;;17.85;100.00;96336.91;5045133;28;20025;-77
2022/07/04 01:57:18;;;;;;;2.30;1.38;;;;;;;17.92;100.00;96344.09;5045265;28;20044;-77
2022/07/04 02:02:35;;;;;;;3.20;1.30;;;;;;;17.79;100.00;96343.03;5068191;28;20040;-77
2022/07/04 02:05:01;;;;;;;5.57;1.88;;;;;;;17.88;100.00;96349.81;5051563;28;20521;-77
2022/07/04 02:07:26;;;;;;;5.43;1.77;;;;;;;17.81;100.00;96353.47;5070109;28;20036;-77
2022/07/04 02:09:52;;;;;;;2.92;1.50;;;;;;;17.76;100.00;96362.03;5048343;28;20040;-77
2022/07/04 02:15:03;;;;;;;3.70;1.75;;;;;;;17.70;100.00;96375.28;5043271;28;20143;-77
2022/07/04 02:17:28;;;;;;;2.55;1.40;;;;;;;17.68;100.00;96370.19;5064860;28;20105;-77
2022/07/04 02:19:54;;;;;;;2.00;1.42;;;;;;;17.70;100.00;96369.97;5045508;28;20499;-78
2022/07/04 02:22:20;;;;;;;3.47;1.60;;;;;;;17.64;100.00;96375.09;5054639;28;20611;-77
2022/07/04 02:24:46;;;;;;;4.00;1.50;;;;;;;17.63;100.00;96378.75;5030843;28;20036;-77
2022/07/04 02:27:11;;;;;;;5.03;1.70;;;;;;;17.53;100.00;96386.28;5054712;28;20486;-77
2022/07/04 02:29:38;;;;;;;3.50;1.92;;;;;;;17.61;100.00;96388.78;5049258;28;20040;-78
2022/07/04 02:32:04;;;;;;;5.65;1.73;;;;;;;17.71;100.00;96391.06;5035634;28;20613;-77
2022/07/04 02:34:30;;;;;;;3.58;1.35;;;;;;;17.73;100.00;96393.50;5049608;28;20109;-77
2022/07/04 02:36:56;;;;;;;3.65;1.60;;;;;;;17.77;100.00;96390.31;5049366;28;20078;-77
2022/07/04 02:39:21;;;;;;;2.25;1.40;;;;;;;17.79;100.00;96400.72;5069818;28;20079;-77
2022/07/04 02:41:47;;;;;;;5.07;1.63;;;;;;;17.70;100.00;96399.22;5065498;28;20078;-78
2022/07/04 02:44:13;;;;;;;2.90;1.48;;;;;;;17.66;100.00;96404.94;5033232;28;20052;-77
2022/07/04 02:46:39;;;;;;;3.30;1.30;;;;;;;17.76;100.00;96415.25;5052652;28;20033;-77
2022/07/04 02:49:04;;;;;;;4.25;1.77;;;;;;;17.74;100.00;96406.63;5066706;28;20526;-77
2022/07/04 02:51:31;;;;;;;3.13;1.40;;;;;;;17.71;100.00;96407.03;5068834;28;20032;-78
2022/07/04 02:53:57;;;;;;;2.50;1.60;;;;;;;17.64;100.00;96416.81;5069904;28;20039;-77
2022/07/04 02:56:23;;;;;;;3.83;1.70;;;;;;;17.65;100.00;96419.28;5048882;28;20112;-77
2022/07/04 02:58:48;;;;;;;4.38;1.98;;;;;;;17.61;100.00;96422.53;5032899;28;20830;-78
2022/07/04 03:01:14;;;;;;;3.80;1.80;;;;;;;17.61;100.00;96426.00;5034079;28;20044;-77
2022/07/04 03:03:41;;;;;;;2.10;1.45;;;;;;;17.49;100.00;96426.78;5049382;28;20087;-78
2022/07/04 03:06:08;;;;;;;2.97;1.40;;;;;;;17.43;100.00;96433.69;5041906;28;20116;-77
2022/07/04 03:08:34;;;;;;;4.00;1.60;;;;;;;17.52;100.00;96432.50;5047069;28;20532;-77
2022/07/04 03:11:01;;;;;;;4.57;1.80;;;;;;;17.29;100.00;96432.81;5049106;28;20071;-77
2022/07/04 03:13:27;;;;;;;4.07;1.80;;;;;;;17.24;100.00;96442.41;5048020;28;20407;-77
2022/07/04 03:15:52;;;;;;;2.80;1.55;;;;;;;17.36;100.00;96443.47;5046965;28;20032;-77
2022/07/04 03:18:18;;;;;;;4.15;1.67;;;;;;;17.37;100.00;96437.13;5047326;28;20068;-77
2022/07/04 03:20:44;;;;;;;4.28;1.85;;;;;;;17.32;100.00;96434.25;5065920;28;20028;-77
2022/07/04 03:23:10;;;;;;;5.97;1.60;;;;;;;17.31;100.00;96436.09;5066784;28;20035;-77
2022/07/04 03:25:36;;;;;;;4.15;1.63;;;;;;;17.27;100.00;96447.31;5066281;28;21253;-77
2022/07/04 03:28:03;;;;;;;2.65;1.90;;;;;;;17.22;100.00;96447.91;5068012;28;20104;-77
2022/07/04 03:30:29;;;;;;;3.25;1.90;;;;;;;17.29;100.00;96454.06;5038592;28;20028;-78
2022/07/04 03:32:55;;;;;;;6.47;4.35;;;;;;;17.27;100.00;96447.31;5058722;28;20029;-77
2022/07/04 03:35:20;;;;;;;5.22;3.28;;;;;;;17.29;100.00;96450.59;5065995;28;20036;-79
2022/07/04 03:37:46;;;;;;;4.22;1.98;;;;;;;17.31;100.00;96451.22;5063070;28;20035;-77
2022/07/04 03:40:12;;;;;;;4.75;2.00;;;;;;;17.39;100.00;96462.50;5065731;28;20036;-77
2022/07/04 03:42:38;;;;;;;3.25;1.67;;;;;;;17.37;100.00;96447.75;5067533;28;20449;-77
2022/07/04 03:45:05;;;;;;;4.05;1.75;;;;;;;17.37;100.00;96459.25;5070096;28;20957;-77
2022/07/04 03:47:31;;;;;;;3.65;1.67;;;;;;;17.44;100.00;96464.59;5034183;28;20029;-78
2022/07/04 03:49:57;;;;;;;4.05;1.77;;;;;;;17.40;100.00;96468.66;5064756;28;20036;-78
2022/07/04 03:52:23;;;;;;;4.57;1.70;;;;;;;17.42;100.00;96461.31;5048771;28;20024;-78
2022/07/04 03:54:49;;;;;;;5.18;1.88;;;;;;;17.40;100.00;96463.31;5034595;28;20120;-78
2022/07/04 03:57:15;;;;;;;5.07;1.65;;;;;;;17.41;100.00;96465.00;5067638;28;20064;-78
2022/07/04 03:59:40;;;;;;;3.08;1.55;;;;;;;17.37;100.00;96469.03;5066528;28;20028;-78
2022/07/04 04:02:06;;;;;;;3.65;2.10;;;;;;;17.38;100.00;96473.34;5067650;28;20043;-78
2022/07/04 04:07:16;;;;;;;13.00;8.57;;;;;;;17.44;100.00;96470.72;5068818;28;20032;-77
2022/07/04 04:09:42;;;;;;;7.05;2.65;;;;;;;17.51;100.00;96476.09;5063817;28;21072;-78
2022/07/04 04:12:08;;;;;;;2.90;1.85;;;;;;;17.49;100.00;96467.47;5050268;28;20040;-78
2022/07/04 04:14:34;;;;;;;3.58;1.80;;;;;;;17.50;100.00;96474.44;5066985;28;20029;-78
2022/07/04 04:16:59;;;;;;;2.50;1.58;;;;;;;17.59;100.00;96465.28;5051423;28;20031;-78
2022/07/04 04:19:25;;;;;;;3.03;1.65;;;;;;;17.58;100.00;96465.47;5071438;28;21421;-78
2022/07/04 04:21:51;;;;;;;8.02;2.15;;;;;;;17.48;100.00;96465.03;5053592;28;20044;-79
2022/07/04 04:24:16;;;;;;;3.47;1.77;;;;;;;17.61;100.00;96465.91;5072877;28;20044;-78
2022/07/04 04:26:42;;;;;;;5.32;2.20;;;;;;;17.68;100.00;96463.28;5080582;28;20112;-78
2022/07/04 04:29:08;;;;;;;5.18;2.05;;;;;;;17.61;100.00;96457.13;5071802;28;20016;-78
2022/07/04 04:31:33;;;;;;;3.58;1.83;;;;;;;17.57;100.00;96464.66;5085067;28;20024;-78
2022/07/04 04:33:59;;;;;;;4.80;2.53;;;;;;;17.59;100.00;96462.63;5039611;28;20047;-78
2022/07/04 04:36:25;;;;;;;4.70;1.90;;;;;;;17.68;100.00;96464.09;5071093;28;20033;-78
2022/07/04 04:38:52;;;;;;;2.35;1.63;;;;;;;17.67;100.00;96462.47;5070236;28;20047;-78
2022/07/04 04:41:17;;;;;;;2.95;1.60;;;;;;;17.77;100.00;96471.91;5036876;28;20032;-78
2022/07/04 04:43:43;;;;;;;4.00;1.55;;;;;;;17.77;100.00;96470.09;5069470;28;20095;-78
2022/07/04 04:46:09;;;;;;;3.65;2.00;;;;;;;17.66;100.00;96475.94;5051234;28;20457;-78
2022/07/04 04:48:35;;;;;;;6.20;1.90;;;;;;;17.77;100.00;96483.41;5069013;28;20068;-78
2022/07/04 04:51:01;;;;;;;3.50;1.88;;;;;;;17.80;100.00;96482.16;5052182;28;20044;-78
2022/07/04 04:53:27;;;;;;;9.10;2.55;;;;;;;17.75;100.00;96492.56;5052001;28;20119;-78
2022/07/04 04:55:53;;;;;;;7.00;2.42;;;;;;;17.80;100.00;96495.47;5049996;28;20383;-77
2022/07/04 04:58:20;;;;;;;3.70;1.60;;;;;;;17.75;100.00;96497.88;5067959;28;20067;-78
2022/07/04 05:00:48;;;;;;;4.00;2.33;;;;;;;17.77;100.00;96506.50;5049763;28;20048;-77
2022/07/04 05:03:13;;;;;;;6.70;1.98;;;;;;;17.74;100.00;96504.19;5059583;28;20103;-77
2022/07/04 05:05:39;;;;;;;5.22;1.83;;;;;;;17.75;100.00;96508.53;5041647;28;20498;-77
2022/07/04 05:08:05;;;;;;;5.50;2.00;;;;;;;17.77;100.00;96518.00;5038896;28;20970;-77
2022/07/04 05:10:31;;;;;;;4.38;1.85;;;;;;;17.81;100.00;96518.41;5035698;28;20036;-78
2022/07/04 05:12:57;;;;;;;5.00;1.73;;;;;;;17.77;100.00;96520.66;5065869;28;20052;-77
2022/07/04 05:15:22;;;;;;;3.42;1.92;;;;;;;17.78;100.00;96516.16;5049370;28;20468;-77
2022/07/04 05:17:48;;;;;;;4.30;2.13;;;;;;;17.85;100.00;96524.97;5071361;28;20048;-77
2022/07/04 05:20:14;;;;;;;4.68;2.10;;;;;;;17.79;100.00;96520.44;5063835;28;20078;-77
2022/07/04 05:22:40;;;;;;;5.00;2.25;;;;;;;17.94;100.00;96521.13;5052085;28;20085;-78
2022/07/04 05:25:06;;;;;;;3.28;2.13;;;;;;;17.91;100.00;96524.19;5057338;28;20036;-77
2022/07/04 05:27:33;;;;;;;3.90;2.17;;;;;;;18.07;100.00;96518.50;5061553;28;20051;-78
2022/07/04 05:29:59;;;;;;;4.00;2.00;;;;;;;18.09;100.00;96516.47;5053625;28;20024;-77
2022/07/04 05:32:26;;;;;;;3.08;1.83;;;;;;;18.19;100.00;96510.78;5069112;28;20039;-77
2022/07/04 05:34:52;;;;;;;5.43;2.50;;;;;;;18.32;100.00;96516.13;5057926;28;20033;-77
2022/07/04 05:37:18;;;;;;;4.22;2.10;;;;;;;18.37;100.00;96515.53;5062547;28;20069;-79
2022/07/04 05:39:43;;;;;;;4.20;1.90;;;;;;;18.38;100.00;96512.69;5062582;28;20033;-77
2022/07/04 05:42:09;;;;;;;4.90;2.10;;;;;;;18.45;100.00;96511.88;5071455;28;20068;-77
2022/07/04 05:44:35;;;;;;;5.70;2.13;;;;;;;18.53;100.00;96512.47;5088412;28;20040;-78
2022/07/04 05:47:00;;;;;;;5.10;2.00;;;;;;;18.67;100.00;96515.16;5078612;28;20031;-78
2022/07/04 05:49:26;;;;;;;5.35;2.42;;;;;;;18.67;100.00;96523.16;5042120;28;20147;-78
2022/07/04 05:51:52;;;;;;;5.53;2.10;;;;;;;18.93;100.00;96520.56;5081009;28;20044;-77
2022/07/04 05:54:17;;;;;;;4.18;1.85;;;;;;;18.89;100.00;96532.66;5063022;28;20054;-78
2022/07/04 05:56:43;;;;;;;4.22;1.60;;;;;;;18.97;100.00;96529.78;5054513;28;20507;-78
2022/07/04 05:59:09;;;;;;;3.92;2.15;;;;;;;18.80;100.00;96533.88;5047331;28;20032;-78
2022/07/04 06:01:36;;;;;;;3.13;1.77;;;;;;;18.73;100.00;96533.84;5077050;28;20028;-78
2022/07/04 06:04:03;;;;;;;4.78;2.05;;;;;;;18.74;100.00;96540.00;5077719;28;20096;-78
2022/07/04 06:06:29;;;;;;;5.05;1.90;;;;;;;18.85;100.00;96542.09;5061559;28;20852;-78
2022/07/04 06:08:56;;;;;;;4.15;2.05;;;;;;;18.90;100.00;96544.94;5068052;28;20029;-79
2022/07/04 06:11:22;;;;;;;4.75;1.80;;;;;;;18.91;100.00;96540.44;5057477;28;20076;-77
2022/07/04 06:13:48;;;;;;;4.07;2.22;;;;;;;18.95;100.00;96542.50;5039820;28;20048;-78
2022/07/04 06:16:14;;;;;;;5.25;1.90;;;;;;;19.10;100.00;96541.47;5072160;28;20032;-79
2022/07/04 06:18:40;;;;;;;5.53;1.88;;;;;;;19.43;100.00;96544.94;5069797;28;20037;-77
2022/07/04 06:21:06;;;;;;;3.53;1.83;;;;;;;19.67;100.00;96550.66;5083335;28;20025;-78
2022/07/04 06:23:32;;;;;;;5.50;2.13;;;;;;;19.97;100.00;96545.66;5054364;28;20084;-78
2022/07/04 06:25:58;;;;;;;5.70;2.20;;;;;;;20.10;100.00;96545.63;5044065;28;20028;-77
2022/07/04 06:28:23;;;;;;;4.07;1.85;;;;;;;20.33;100.00;96545.09;5089779;28;20040;-77
2022/07/04 06:30:49;;;;;;;5.07;1.90;;;;;;;20.41;100.00;96546.72;5047629;28;20028;-78
2022/07/04 06:33:15;;;;;;;3.03;1.85;;;;;;;20.34;100.00;96551.25;5053587;28;20686;-78
2022/07/04 06:35:49;;;;;;;3.13;1.80;;;;;;;20.73;100.00;96547.59;5061548;28;20387;-77
2022/07/04 06:38:19;;;;;;;3.42;2.05;;;;;;;20.25;100.00;96542.66;5054837;28;20043;-78
2022/07/04 06:40:46;;;;;;;3.58;1.70;;;;;;;20.52;100.00;96548.72;5055988;28;20032;-77
2022/07/04 06:43:12;;;;;;;3.67;1.80;;;;;;;20.42;100.00;96548.34;5067061;28;20151;-80
2022/07/04 06:45:38;;;;;;;5.65;1.85;;;;;;;20.61;100.00;96547.44;5073178;28;20039;-77
2022/07/04 06:48:05;;;;;;;6.47;2.10;;;;;;;20.62;100.00;96545.59;5068316;28;20096;-78
2022/07/04 06:50:32;;;;;;;4.40;1.92;;;;;;;20.54;100.00;96541.31;5053802;28;20068;-78
2022/07/04 06:53:03;;;;;;;6.75;1.58;;;;;;;20.73;100.00;96536.91;5032355;28;20495;-79
2022/07/04 06:55:36;;;;;;;7.32;2.10;;;;;;;20.66;100.00;96531.59;5044847;28;20033;-78
2022/07/04 06:58:03;;;;;;;3.42;1.80;;;;;;;21.10;100.00;96534.38;5033436;28;20025;-77
2022/07/04 07:00:31;;;;;;;5.68;1.60;;;;;;;21.32;98.51;96521.41;5062930;28;20801;-78
2022/07/04 07:02:58;;;;;;;6.68;2.00;;;;;;;21.17;98.03;96513.72;5051285;28;20064;-78
2022/07/04 07:05:29;;;;;;;5.40;1.98;;;;;;;21.55;94.82;96513.59;5055956;28;20068;-77
2022/07/04 07:07:55;;;;;;;3.45;1.88;;;;;;;21.56;95.58;96509.91;5048003;28;20479;-78
2022/07/04 07:10:21;;;;;;;2.92;1.60;;;;;;;21.86;88.89;96515.34;5071664;28;20475;-78
2022/07/04 07:12:47;;;;;;;5.68;1.73;;;;;;;22.06;86.76;96508.91;5054810;28;20077;-77
2022/07/04 07:15:13;;;;;;;3.53;1.60;;;;;;;22.22;85.41;96511.00;5056869;28;20035;-78
2022/07/04 07:17:42;;;;;;;4.40;1.77;;;;;;;22.24;87.96;96524.19;5051417;28;20037;-79
2022/07/04 07:20:09;;;;;;;5.35;1.63;;;;;;;22.21;84.34;96521.97;5034933;28;20029;-79
2022/07/04 07:22:35;;;;;;;3.80;1.65;;;;;;;22.38;80.71;96519.47;5036910;28;20655;-79
2022/07/04 07:25:00;;;;;;;4.80;1.80;;;;;;;22.35;82.37;96520.72;5047460;28;20043;-80
2022/07/04 07:27:27;;;;;;;6.13;2.15;;;;;;;22.39;79.43;96513.06;5036119;28;20675;-79
2022/07/04 07:29:53;;;;;;;5.13;1.83;;;;;;;22.45;81.70;96523.69;5054003;28;20308;-79
2022/07/04 07:32:19;;;;;;;5.38;1.70;;;;;;;22.80;78.56;96513.09;5063630;28;20037;-78
2022/07/04 07:34:44;;;;;;;5.28;1.55;;;;;;;22.82;81.62;96510.97;5052429;28;20055;-79
2022/07/04 07:37:10;;;;;;;4.45;1.65;;;;;;;22.61;77.73;96513.38;5069783;28;20048;-79
2022/07/04 07:39:36;;;;;;;7.57;2.00;;;;;;;22.96;76.08;96510.81;5051050;28;20032;-79
2022/07/04 07:42:02;;;;;;;3.42;1.65;;;;;;;23.10;76.33;96506.03;5039419;28;20033;-79
2022/07/04 07:44:28;;;;;;;3.00;1.83;;;;;;;23.18;74.32;96501.16;5059955;28;20043;-79
2022/07/04 07:46:53;;;;;;;3.72;1.85;;;;;;;23.23;72.57;96495.09;5048526;28;20033;-79
2022/07/04 07:49:19;;;;;;;2.28;1.58;;;;;;;22.82;76.79;96494.88;5067554;28;20032;-79
2022/07/04 07:51:45;;;;;;;3.97;1.70;;;;;;;22.84;73.07;96492.00;5053370;28;20044;-79
2022/07/04 07:54:11;;;;;;;3.88;2.00;;;;;;;22.59;76.81;96484.09;5070239;28;20020;-79
2022/07/04 07:56:36;;;;;;;4.25;1.40;;;;;;;23.32;76.89;96484.84;5036791;28;20219;-79
2022/07/04 07:59:02;;;;;;;4.60;1.77;;;;;;;23.25;76.43;96484.94;5055332;28;20036;-79
2022/07/04 08:01:28;;;;;;;2.40;1.63;;;;;;;23.88;71.62;96469.97;5065154;28;20048;-79
2022/07/04 08:06:38;;;;;;;4.40;2.00;;;;;;;23.65;69.21;96476.97;5048417;28;20498;-79
2022/07/04 08:09:04;;;;;;;7.07;2.13;;;;;;;23.63;67.50;96481.75;5066520;28;20059;-79
2022/07/04 08:11:29;;;;;;;3.72;1.67;;;;;;;23.90;71.38;96482.09;5049295;28;20056;-79
2022/07/04 08:13:55;;;;;;;3.90;1.67;;;;;;;23.52;68.05;96478.03;5025768;28;20100;-78
2022/07/04 08:16:21;;;;;;;4.00;1.65;;;;;;;23.71;69.12;96475.25;5055388;28;20056;-79
2022/07/04 08:18:47;;;;;;;4.20;1.77;;;;;;;23.40;73.47;96473.72;5050079;28;20043;-79
2022/07/04 08:21:16;;;;;;;7.97;2.20;;;;;;;23.34;71.83;96480.88;5026883;28;20532;-79
2022/07/04 08:23:42;;;;;;;5.95;1.65;;;;;;;23.78;71.25;96475.13;5082348;28;20029;-79
2022/07/04 08:26:08;;;;;;;2.35;1.50;;;;;;;24.19;68.14;96472.19;5056925;28;20036;-79
2022/07/04 08:28:33;;;;;;;3.20;1.67;;;;;;;23.89;68.91;96476.97;5076010;28;20028;-79
2022/07/04 08:31:00;;;;;;;5.45;1.60;;;;;;;24.03;70.77;96482.88;5069071;28;20565;-79
2022/07/04 08:33:26;;;;;;;8.55;2.25;;;;;;;23.75;70.27;96479.91;5069880;28;20398;-79
2022/07/04 08:35:53;;;;;;;4.00;1.67;;;;;;;23.27;74.33;96480.16;5067181;28;20088;-79
2022/07/04 08:38:20;;;;;;;10.10;2.42;;;;;;;23.37;73.96;96475.00;5071069;28;20044;-79
2022/07/04 08:40:48;;;;;;;3.97;2.00;;;;;;;23.26;75.47;96473.97;5042512;28;20035;-79
2022/07/04 08:43:14;;;;;;;3.20;1.80;;;;;;;22.91;78.21;96476.59;5055037;28;20033;-79
2022/07/04 08:45:41;;;;;;;2.65;1.52;;;;;;;23.17;76.24;96475.38;5053195;28;20025;-79
2022/07/04 08:48:09;;;;;;;4.82;2.00;;;;;;;22.96;75.31;96473.25;5052728;28;20067;-79
2022/07/04 08:50:39;;;;;;;2.45;1.75;;;;;;;23.37;79.88;96469.63;5053232;28;20541;-79
2022/07/04 08:53:13;;;;;;;9.25;2.15;;;;;;;23.40;75.90;96469.19;5052592;28;20387;-79
2022/07/04 08:58:25;;;;;;;2.80;1.58;;;;;;;23.51;75.99;96478.28;5066489;28;20107;-79
2022/07/04 09:00:53;;;;;;;4.93;2.00;;;;;;;23.44;74.22;96485.63;5047481;28;20039;-78
2022/07/04 09:03:19;;;;;;;5.47;1.80;;;;;;;23.63;69.87;96481.75;5034438;28;20074;-78
2022/07/04 09:05:45;;;;;;;3.53;1.75;;;;;;;23.55;72.52;96487.50;5052954;28;20383;-78
2022/07/04 09:08:11;;;;;;;4.38;1.45;;;;;;;23.75;73.60;96487.97;5037654;28;20497;-78
2022/07/04 09:10:38;;;;;;;4.53;1.70;;;;;;;23.68;77.22;96492.66;5056741;28;20028;-79
2022/07/04 09:13:05;;;;;;;3.67;1.63;;;;;;;23.37;78.27;96495.66;5063420;28;20033;-77
2022/07/04 09:15:32;;;;;;;4.65;1.60;;;;;;;23.81;72.90;96496.97;5061826;28;20035;-79
2022/07/04 09:18:00;;;;;;;4.03;1.83;;;;;;;23.84;73.36;96491.09;5071074;28;20029;-78
2022/07/04 09:20:26;;;;;;;9.65;1.90;;;;;;;23.59;73.08;96499.41;5045941;28;20029;-78
2022/07/04 09:22:53;;;;;;;2.55;1.70;;;;;;;24.27;71.38;96502.44;5066489;28;20037;-77
2022/07/04 09:25:21;;;;;;;3.45;1.58;;;;;;;23.99;70.32;96493.28;5070679;28;20028;-78
2022/07/04 09:27:54;;;;;;;6.55;1.90;;;;;;;23.95;70.44;96501.00;5072180;28;20036;-79
2022/07/04 09:30:23;;;;;;;3.08;1.60;;;;;;;24.89;66.25;96497.13;5087906;28;20546;-79
2022/07/04 09:32:51;;;;;;;3.72;2.03;;;;;;;25.38;62.80;96500.06;5055741;28;20039;-79
2022/07/04 09:35:20;;;;;;;6.93;1.77;;;;;;;25.55;63.64;96500.03;5072006;28;20040;-78
2022/07/04 09:37:48;;;;;;;4.78;2.00;;;;;;;25.88;61.00;96506.47;5039364;28;20482;-77
2022/07/04 09:40:28;;;;;;;4.35;1.50;;;;;;;25.81;59.19;96515.53;5044556;28;20096;-79
2022/07/04 09:42:57;;;;;;;3.67;1.70;;;;;;;26.26;58.41;96519.88;5053769;28;20028;-78
2022/07/04 09:45:24;;;;;;;5.32;1.75;;;;;;;26.53;57.55;96517.25;5066240;28;20597;-77
2022/07/04 09:47:55;;;;;;;3.42;1.50;;;;;;;27.19;52.48;96516.25;5043142;28;20123;-78
2022/07/04 09:50:22;;;;;;;4.38;1.88;;;;;;;26.81;53.12;96512.66;5061455;28;20033;-79
2022/07/04 09:53:02;;;;;;;5.97;1.75;;;;;;;26.97;55.04;96519.81;5042459;28;20403;-79
2022/07/04 09:55:34;;;;;;;3.95;1.60;;;;;;;26.90;51.21;96516.53;5024172;28;20481;-79
2022/07/04 09:58:06;;;;;;;3.53;1.70;;;;;;;27.06;52.00;96513.94;5047861;28;20510;-79
2022/07/04 10:00:36;;;;;;;4.55;2.13;;;;;;;27.61;52.79;96516.28;5055733;28;20035;-79
2022/07/04 10:03:25;;;;;;;4.05;1.80;;;;;;;27.04;49.17;96515.03;5059831;28;20525;-78
2022/07/04 10:06:04;;;;;;;3.38;1.58;;;;;;;27.48;46.83;96512.13;5058563;28;20030;-79
2022/07/04 10:08:30;;;;;;;3.05;1.60;;;;;;;28.13;45.43;96511.97;5062449;28;20044;-79
2022/07/04 10:11:01;;;;;;;4.07;1.60;;;;;;;28.21;46.22;96514.19;5066302;28;20040;-79
2022/07/04 10:13:27;;;;;;;3.40;1.80;;;;;;;28.37;46.90;96518.56;5042472;28;20059;-79
2022/07/04 10:15:53;;;;;;;2.58;1.23;;;;;;;28.63;43.99;96515.94;5063910;28;20071;-80
2022/07/04 10:18:21;;;;;;;3.05;1.65;;;;;;;27.68;46.17;96524.16;5061187;28;20040;-78
2022/07/04 10:20:51;;;;;;;2.67;1.23;;;;;;;26.73;46.38;96529.31;5062579;28;20054;-80
2022/07/04 10:23:21;;;;;;;4.75;1.50;;;;;;;26.99;50.09;96523.06;5047646;28;20028;-79
2022/07/04 10:25:52;;;;;;;3.42;1.50;;;;;;;27.59;46.96;96523.81;5061805;28;20061;-78
2022/07/04 10:28:18;;;;;;;2.00;1.27;;;;;;;27.22;49.88;96527.34;5029145;28;20032;-78
2022/07/04 10:30:49;;;;;;;4.53;1.60;;;;;;;26.55;51.80;96533.16;5061208;28;20056;-78
2022/07/04 10:33:15;;;;;;;3.97;1.63;;;;;;;26.80;50.47;96532.63;5062564;28;21363;-78
2022/07/04 10:35:56;;;;;;;3.40;1.83;;;;;;;27.09;49.86;96535.03;5062974;28;20025;-80
2022/07/04 10:38:45;;;;;;;2.85;1.50;;;;;;;26.74;51.18;96533.63;5042975;28;20043;-79
2022/07/04 10:41:11;;;;;;;2.17;1.30;;;;;;;26.92;49.85;96527.88;5031782;28;20040;-78
2022/07/04 10:44:02;;;;;;;4.47;1.50;;;;;;;26.93;50.30;96526.81;5062905;28;20044;-79
2022/07/04 10:46:32;;;;;;;2.70;1.30;;;;;;;28.81;45.92;96528.97;5064911;28;20040;-79
2022/07/04 10:49:16;;;;;;;3.35;1.65;;;;;;;28.55;44.89;96511.06;5049763;28;20052;-79
2022/07/04 10:51:43;;;;;;;7.20;1.50;;;;;;;28.58;44.45;96513.25;5049068;28;20044;-80
2022/07/04 10:54:32;;;;;;;2.50;1.30;;;;;;;29.99;41.97;96515.41;5043951;28;21303;-79
2022/07/04 10:57:19;;;;;;;5.25;1.83;;;;;;;29.53;43.27;96508.16;5049529;28;20028;-79
2022/07/04 10:59:54;;;;;;;3.85;1.85;;;;;;;29.13;43.64;96512.50;5066346;28;20036;-79
2022/07/04 11:02:22;;;;;;;5.45;1.70;;;;;;;29.44;43.72;96509.78;5067421;28;20094;-79
2022/07/04 11:04:55;;;;;;;5.53;1.83;;;;;;;29.94;43.07;96504.56;5037108;28;20088;-80
2022/07/04 11:07:42;;;;;;;4.03;1.45;;;;;;;29.20;43.99;96506.81;5048744;28;20040;-79
2022/07/04 11:10:11;;;;;;;2.83;1.48;;;;;;;28.86;45.33;96501.09;5067526;28;20035;-80
2022/07/04 11:12:57;;;;;;;3.40;1.55;;;;;;;30.47;42.96;96500.28;5046837;28;20064;-79
2022/07/04 11:15:28;;;;;;;3.25;1.38;;;;;;;30.24;41.61;96504.47;5060659;28;20048;-79
2022/07/04 11:17:57;;;;;;;2.78;1.52;;;;;;;30.80;40.70;96508.81;5070948;28;20065;-79
2022/07/04 11:20:24;;;;;;;5.43;1.83;;;;;;;30.79;40.00;96506.38;5042307;28;20059;-79
2022/07/04 11:22:50;;;;;;;3.50;1.63;;;;;;;31.13;40.71;96506.41;5056140;28;20040;-79
2022/07/04 11:25:17;;;;;;;2.72;1.48;;;;;;;30.99;38.33;96507.03;5066560;28;20028;-80
2022/07/04 11:27:43;;;;;;;5.35;2.00;;;;;;;30.82;40.18;96511.22;5052233;28;20035;-79
2022/07/04 11:30:10;;;;;;;4.40;1.85;;;;;;;30.25;39.51;96502.59;5051745;28;20025;-80
2022/07/04 11:32:38;;;;;;;2.78;1.42;;;;;;;31.04;38.97;96486.38;5067195;28;20475;-80
2022/07/04 11:35:06;;;;;;;4.10;2.15;;;;;;;30.80;40.76;96487.09;5050193;28;20376;-79
2022/07/04 11:37:32;;;;;;;3.30;1.42;;;;;;;30.48;42.34;96479.38;5068789;28;20029;-79
2022/07/04 11:45:50;;;;;;;5.97;1.77;;;;;;;30.03;42.43;96470.38;5064226;28;20115;-79
2022/07/04 11:48:22;;;;;;;5.10;1.70;;;;;;;29.69;44.36;96462.09;5070276;28;20029;-79